createdAt,value
2022-12-23T00:00:46.851Z,11.13
2022-12-23T00:03:14.746Z,10.20
2022-12-23T00:05:42.740Z,11.23
2022-12-23T00:08:10.495Z,12.00
2022-12-23T00:10:41.150Z,10.13
2022-12-23T00:13:27.596Z,9.63
2022-12-23T00:16:02.097Z,10.18
2022-12-23T00:18:30.117Z,9.95
2022-12-23T00:21:08.606Z,8.90
2022-12-23T00:23:37.803Z,10.40
2022-12-23T00:26:05.555Z,9.68
2022-12-23T00:28:33.353Z,9.45
2022-12-23T00:31:05.024Z,9.77
2022-12-23T00:33:36.854Z,9.75
2022-12-23T00:36:11.765Z,9.48
2022-12-23T00:38:57.946Z,10.40
2022-12-23T00:41:44.506Z,9.30
2022-12-23T00:44:12.204Z,10.15
2022-12-23T00:46:40.072Z,11.35
2022-12-23T00:49:26.536Z,10.47
2022-12-23T00:51:54.324Z,9.88
2022-12-23T00:54:22.031Z,9.20
2022-12-23T00:56:49.805Z,9.47
2022-12-23T00:59:17.519Z,9.50
2022-12-23T01:02:04.154Z,10.57
2022-12-23T01:04:51.007Z,10.60
2022-12-23T01:07:19.705Z,10.50
2022-12-23T01:09:47.463Z,10.63
2022-12-23T01:12:15.249Z,10.98
2022-12-23T01:14:42.996Z,10.47
2022-12-23T01:17:10.826Z,11.38
2022-12-23T01:19:38.769Z,11.90
2022-12-23T01:22:06.554Z,12.90
2022-12-23T01:24:34.396Z,12.10
2022-12-23T01:27:02.132Z,11.30
2022-12-23T01:29:30.080Z,12.43
2022-12-23T01:31:57.947Z,10.63
2022-12-23T01:34:29.677Z,10.77
2022-12-23T01:37:00.413Z,11.15
2022-12-23T01:39:28.174Z,10.07
2022-12-23T01:42:14.389Z,11.15
2022-12-23T01:44:58.021Z,11.93
2022-12-23T01:47:28.868Z,11.90
2022-12-23T01:50:04.487Z,10.32
2022-12-23T01:52:32.509Z,12.40
2022-12-23T01:55:00.245Z,12.57
2022-12-23T01:57:28.029Z,12.60
2022-12-23T02:00:14.246Z,12.07
2022-12-23T02:03:00.907Z,11.68
2022-12-23T02:05:28.663Z,9.93
2022-12-23T02:08:14.871Z,12.20
2022-12-23T02:10:57.360Z,14.73
2022-12-23T02:13:28.123Z,15.50
2022-12-23T02:16:16.937Z,11.80
2022-12-23T02:19:00.056Z,12.02
2022-12-23T02:21:46.261Z,12.83
2022-12-23T02:24:16.899Z,13.57
2022-12-23T02:26:47.373Z,12.15
2022-12-23T02:29:30.275Z,10.82
2022-12-23T02:31:59.203Z,12.33
2022-12-23T02:34:36.100Z,12.05
2022-12-23T02:37:24.011Z,12.02
2022-12-23T02:39:51.877Z,12.23
2022-12-23T02:42:21.662Z,10.65
2022-12-23T02:45:15.824Z,10.77
2022-12-23T02:47:45.546Z,11.17
2022-12-23T02:50:16.327Z,11.00
2022-12-23T02:52:44.071Z,11.82
2022-12-23T02:55:13.929Z,11.68
2022-12-23T02:57:42.536Z,11.93
2022-12-23T03:00:10.659Z,10.45
2022-12-23T03:02:39.429Z,10.82
2022-12-23T03:05:07.782Z,11.43
2022-12-23T03:07:36.648Z,10.73
2022-12-23T03:10:06.613Z,10.98
2022-12-23T03:12:57.447Z,9.80
2022-12-23T03:15:29.185Z,9.55
2022-12-23T03:17:57.106Z,10.48
2022-12-23T03:20:43.588Z,10.77
2022-12-23T03:23:11.320Z,9.63
2022-12-23T03:25:39.959Z,10.82
2022-12-23T03:28:18.234Z,9.98
2022-12-23T03:30:47.765Z,10.20
2022-12-23T03:33:23.290Z,10.68
2022-12-23T03:35:54.912Z,9.10
2022-12-23T03:38:22.650Z,9.50
2022-12-23T03:40:55.207Z,9.05
2022-12-23T03:43:26.718Z,8.65
2022-12-23T03:45:58.931Z,7.68
2022-12-23T03:48:37.340Z,7.97
2022-12-23T03:51:12.592Z,8.10
2022-12-23T03:53:41.828Z,8.68
2022-12-23T03:56:10.656Z,8.50
2022-12-23T03:59:07.792Z,9.70
2022-12-23T04:01:38.411Z,10.88
2022-12-23T04:04:12.913Z,11.53
2022-12-23T04:06:42.193Z,15.23
2022-12-23T04:09:10.365Z,14.68
2022-12-23T04:11:38.148Z,10.50
2022-12-23T04:14:05.926Z,14.63
2022-12-23T04:16:33.716Z,13.73
2022-12-23T04:19:01.678Z,13.43
2022-12-23T04:21:29.481Z,14.20
2022-12-23T04:23:57.183Z,13.85
2022-12-23T04:26:24.979Z,13.63
2022-12-23T04:28:52.703Z,16.33
2022-12-23T04:31:20.528Z,13.95
2022-12-23T04:33:48.314Z,13.50
2022-12-23T04:36:16.098Z,12.48
2022-12-23T04:38:43.855Z,15.80
2022-12-23T04:41:11.640Z,14.07
2022-12-23T04:43:39.343Z,12.70
2022-12-23T04:46:07.181Z,15.40
2022-12-23T04:48:34.914Z,12.77
2022-12-23T04:51:03.272Z,13.18
2022-12-23T04:53:31.046Z,14.40
2022-12-23T04:55:58.755Z,14.57
2022-12-23T04:58:26.548Z,13.20
2022-12-23T05:01:10.298Z,12.25
2022-12-23T05:03:38.367Z,9.60
2022-12-23T05:06:06.216Z,8.25
2022-12-23T05:08:34.083Z,9.27
2022-12-23T05:11:01.827Z,15.40
2022-12-23T05:13:29.651Z,14.68
2022-12-23T05:15:57.408Z,14.93
2022-12-23T05:18:25.252Z,11.67
2022-12-23T05:20:52.986Z,12.95
2022-12-23T05:23:20.817Z,13.13
2022-12-23T05:25:52.929Z,11.82
2022-12-23T05:28:21.297Z,12.67
2022-12-23T05:30:49.180Z,13.85
2022-12-23T05:33:17.000Z,15.93
2022-12-23T05:35:44.718Z,18.30
2022-12-23T05:38:12.699Z,15.18
2022-12-23T05:40:40.355Z,13.45
2022-12-23T05:43:08.359Z,11.47
2022-12-23T05:45:36.516Z,12.93
2022-12-23T05:48:04.432Z,10.93
2022-12-23T05:50:32.250Z,11.20
2022-12-23T05:53:00.128Z,10.60
2022-12-23T05:55:27.931Z,9.45
2022-12-23T05:57:55.629Z,9.43
2022-12-23T06:00:23.480Z,16.07
2022-12-23T06:02:54.018Z,16.17
2022-12-23T06:05:22.259Z,13.27
2022-12-23T06:07:50.064Z,10.90
2022-12-23T06:10:17.914Z,9.40
2022-12-23T06:12:45.631Z,8.05
2022-12-23T06:15:13.490Z,7.13
2022-12-23T06:17:41.225Z,6.93
2022-12-23T06:20:13.360Z,6.32
2022-12-23T06:22:45.847Z,6.22
2022-12-23T06:25:13.692Z,6.23
2022-12-23T06:27:41.505Z,5.97
2022-12-23T06:30:09.524Z,6.38
2022-12-23T06:32:38.854Z,6.37
2022-12-23T06:35:07.420Z,6.57
2022-12-23T06:37:35.200Z,6.28
2022-12-23T06:40:02.919Z,7.75
2022-12-23T06:42:30.774Z,7.13
2022-12-23T06:44:58.485Z,6.60
2022-12-23T06:47:26.248Z,6.45
2022-12-23T06:49:54.971Z,7.03
2022-12-23T06:52:23.193Z,6.10
2022-12-23T06:54:50.945Z,6.30
2022-12-23T06:57:18.629Z,6.43
2022-12-23T06:59:46.397Z,6.60
2022-12-23T07:02:14.350Z,6.68
2022-12-23T07:04:42.255Z,7.65
2022-12-23T07:07:09.941Z,6.90
2022-12-23T07:09:37.692Z,7.65
2022-12-23T07:12:06.833Z,7.13
2022-12-23T07:14:34.541Z,6.33
2022-12-23T07:17:02.362Z,6.45
2022-12-23T07:19:30.194Z,6.40
2022-12-23T07:21:57.927Z,11.10
2022-12-23T07:24:25.645Z,13.13
2022-12-23T07:26:53.414Z,11.52
2022-12-23T07:29:21.113Z,9.07
2022-12-23T07:31:48.926Z,7.97
2022-12-23T07:34:16.665Z,6.85
2022-12-23T07:36:44.407Z,7.20
2022-12-23T07:39:12.100Z,8.17
2022-12-23T07:41:39.778Z,7.25
2022-12-23T07:44:08.912Z,9.00
2022-12-23T07:46:36.767Z,7.67
2022-12-23T07:49:04.585Z,9.55
2022-12-23T07:51:32.335Z,8.00
2022-12-23T07:54:00.042Z,8.80
2022-12-23T07:56:27.771Z,6.37
2022-12-23T07:58:55.582Z,6.63
2022-12-23T08:01:23.380Z,6.68
2022-12-23T08:03:51.213Z,7.43
2022-12-23T08:06:19.085Z,8.18
2022-12-23T08:08:47.002Z,7.93
2022-12-23T08:11:15.281Z,5.67
2022-12-23T08:13:43.431Z,5.20
2022-12-23T08:16:14.325Z,5.47
2022-12-23T08:18:42.360Z,5.28
2022-12-23T08:21:17.601Z,5.73
2022-12-23T08:23:47.157Z,5.22
2022-12-23T08:26:16.027Z,5.07
2022-12-23T08:28:44.053Z,4.50
2022-12-23T08:31:13.223Z,6.35
2022-12-23T08:33:41.347Z,5.53
2022-12-23T08:36:09.589Z,5.47
2022-12-23T08:38:37.450Z,5.50
2022-12-23T08:41:08.958Z,6.07
2022-12-23T08:43:36.659Z,6.72
2022-12-23T08:46:04.659Z,4.93
2022-12-23T08:48:33.086Z,6.32
2022-12-23T08:51:04.234Z,5.88
2022-12-23T08:53:32.027Z,5.33
2022-12-23T08:56:02.426Z,5.55
2022-12-23T08:58:30.430Z,5.43
2022-12-23T09:00:58.177Z,5.10
2022-12-23T09:03:25.978Z,5.22
2022-12-23T09:05:53.749Z,5.75
2022-12-23T09:08:21.419Z,5.32
2022-12-23T09:10:50.133Z,4.80
2022-12-23T09:13:26.238Z,4.85
2022-12-23T09:15:58.883Z,4.85
2022-12-23T09:18:26.597Z,4.30
2022-12-23T09:21:00.804Z,5.70
2022-12-23T09:23:28.540Z,6.60
2022-12-23T09:25:56.395Z,5.70
2022-12-23T09:28:24.285Z,5.38
2022-12-23T09:30:52.144Z,4.78
2022-12-23T09:33:20.052Z,6.95
2022-12-23T09:35:47.907Z,8.97
2022-12-23T09:38:15.622Z,9.45
2022-12-23T09:40:43.403Z,11.05
2022-12-23T09:43:13.996Z,10.20
2022-12-23T09:45:44.643Z,12.20
2022-12-23T09:48:13.382Z,11.15
2022-12-23T09:50:41.236Z,6.13
2022-12-23T09:53:09.693Z,5.18
2022-12-23T09:55:59.886Z,4.53
2022-12-23T09:58:31.099Z,5.13
2022-12-23T10:01:03.709Z,4.13
2022-12-23T10:03:35.249Z,4.10
2022-12-23T10:06:03.160Z,4.05
2022-12-23T10:08:30.946Z,4.13
2022-12-23T10:11:01.492Z,4.40
2022-12-23T10:13:30.694Z,4.18
2022-12-23T10:15:59.690Z,3.87
2022-12-23T10:18:36.695Z,4.47
2022-12-23T10:21:06.169Z,5.07
2022-12-23T10:23:40.601Z,5.07
2022-12-23T10:26:17.247Z,4.87
2022-12-23T10:28:45.047Z,4.90
2022-12-23T10:31:39.339Z,4.55
2022-12-23T10:34:06.756Z,4.60
2022-12-23T10:36:34.527Z,4.97
2022-12-23T10:39:02.329Z,4.43
2022-12-23T10:41:39.218Z,4.13
2022-12-23T10:44:36.178Z,3.75
2022-12-23T10:47:36.065Z,4.38
2022-12-23T10:50:23.217Z,4.20
2022-12-23T10:52:51.012Z,4.17
2022-12-23T10:55:33.481Z,4.68
2022-12-23T10:58:22.482Z,4.50
2022-12-23T11:00:54.472Z,4.50
2022-12-23T11:03:24.196Z,4.80
2022-12-23T11:05:55.177Z,4.35
2022-12-23T11:08:22.900Z,4.90
2022-12-23T11:10:52.305Z,4.50
2022-12-23T11:13:26.484Z,4.78
2022-12-23T11:15:54.318Z,4.65
2022-12-23T11:18:22.245Z,3.87
2022-12-23T11:21:03.019Z,4.40
2022-12-23T11:23:36.851Z,4.85
2022-12-23T11:26:05.832Z,4.20
2022-12-23T11:28:33.712Z,4.85
2022-12-23T11:31:08.222Z,3.90
2022-12-23T11:33:40.077Z,4.20
2022-12-23T11:36:08.044Z,5.18
2022-12-23T11:38:36.529Z,4.45
2022-12-23T11:41:04.522Z,3.90
2022-12-23T11:43:32.229Z,4.80
2022-12-23T11:46:16.409Z,4.70
2022-12-23T11:48:44.362Z,4.82
2022-12-23T11:51:13.039Z,5.57
2022-12-23T11:53:43.406Z,4.57
2022-12-23T11:56:14.004Z,4.60
2022-12-23T11:58:47.570Z,4.73
2022-12-23T12:01:16.863Z,4.65
2022-12-23T12:03:59.451Z,4.82
2022-12-23T12:06:27.344Z,5.35
2022-12-23T12:08:55.246Z,4.70
2022-12-23T12:11:26.244Z,4.95
2022-12-23T12:14:03.834Z,4.65
2022-12-23T12:16:31.765Z,5.20
2022-12-23T12:19:02.555Z,4.60
2022-12-23T12:21:31.319Z,5.22
2022-12-23T12:24:18.410Z,4.87
2022-12-23T12:26:51.205Z,5.55
2022-12-23T12:29:31.884Z,5.50
2022-12-23T12:31:59.881Z,4.43
2022-12-23T12:34:27.724Z,5.17
2022-12-23T12:37:01.475Z,5.40
2022-12-23T12:39:33.572Z,4.95
2022-12-23T12:42:05.481Z,4.33
2022-12-23T12:44:33.793Z,4.93
2022-12-23T12:47:15.944Z,5.45
2022-12-23T12:50:09.221Z,4.60
2022-12-23T12:52:38.259Z,4.82
2022-12-23T12:55:08.457Z,4.20
2022-12-23T12:57:36.646Z,4.72
2022-12-23T13:00:07.026Z,5.10
2022-12-23T13:02:43.595Z,4.13
2022-12-23T13:05:21.045Z,4.90
2022-12-23T13:08:04.047Z,4.87
2022-12-23T13:10:44.736Z,4.63
2022-12-23T13:13:18.697Z,4.68
2022-12-23T13:15:51.438Z,4.00
2022-12-23T13:18:26.289Z,3.88
2022-12-23T13:21:14.715Z,4.60
2022-12-23T13:23:58.016Z,4.53
2022-12-23T13:26:29.721Z,4.83
2022-12-23T13:29:03.242Z,5.10
2022-12-23T13:31:31.161Z,5.03
2022-12-23T13:34:05.628Z,4.53
2022-12-23T13:36:45.736Z,6.03
2022-12-23T13:39:16.546Z,4.60
2022-12-23T13:41:48.139Z,5.27
2022-12-23T13:44:18.397Z,5.30
2022-12-23T13:47:04.711Z,4.60
2022-12-23T13:49:34.683Z,4.30
2022-12-23T13:52:07.355Z,4.50
2022-12-23T13:54:53.482Z,3.90
2022-12-23T13:57:39.840Z,2.72
2022-12-23T14:00:19.406Z,4.97
2022-12-23T14:03:01.972Z,4.03
2022-12-23T14:05:33.933Z,3.47
2022-12-23T14:08:23.112Z,4.53
2022-12-23T14:10:52.169Z,4.63
2022-12-23T14:13:20.524Z,5.32
2022-12-23T14:15:54.087Z,4.03
2022-12-23T14:18:28.450Z,4.37
2022-12-23T14:21:02.281Z,3.72
2022-12-23T14:23:50.245Z,3.03
2022-12-23T14:26:17.958Z,5.10
2022-12-23T14:28:54.885Z,3.88
2022-12-23T14:31:30.329Z,3.97
2022-12-23T14:34:16.933Z,2.63
2022-12-23T14:37:03.234Z,2.85
2022-12-23T14:39:31.866Z,4.28
2022-12-23T14:42:05.794Z,3.28
2022-12-23T14:44:38.133Z,4.40
2022-12-23T14:47:31.615Z,3.73
2022-12-23T14:50:19.392Z,4.43
2022-12-23T14:52:50.632Z,4.00
2022-12-23T14:55:32.851Z,4.77
2022-12-23T14:58:07.860Z,3.17
2022-12-23T15:00:37.386Z,3.95
2022-12-23T15:03:05.158Z,3.83
2022-12-23T15:05:33.028Z,2.65
2022-12-23T15:08:00.793Z,3.97
2022-12-23T15:10:29.231Z,4.95
2022-12-23T15:12:57.814Z,4.70
2022-12-23T15:15:26.266Z,4.20
2022-12-23T15:18:24.258Z,3.95
2022-12-23T15:21:01.607Z,4.73
2022-12-23T15:23:29.543Z,5.25
2022-12-23T15:25:58.877Z,3.65
2022-12-23T15:28:44.722Z,4.23
2022-12-23T15:31:35.547Z,3.65
2022-12-23T15:34:08.866Z,5.30
2022-12-23T15:36:42.488Z,4.07
2022-12-23T15:39:20.700Z,4.60
2022-12-23T15:41:48.490Z,4.97
2022-12-23T15:44:23.076Z,4.57
2022-12-23T15:46:51.272Z,3.80
2022-12-23T15:49:19.664Z,5.82
2022-12-23T15:52:16.530Z,4.45
2022-12-23T15:54:46.207Z,5.87
2022-12-23T15:57:15.175Z,5.07
2022-12-23T15:59:42.969Z,4.85
2022-12-23T16:05:16.513Z,3.27
2022-12-23T16:07:47.199Z,5.53
2022-12-23T16:10:16.993Z,4.07
2022-12-23T16:12:44.883Z,5.27
2022-12-23T16:15:28.818Z,4.30
2022-12-23T16:18:15.035Z,4.65
2022-12-23T16:20:43.961Z,4.80
2022-12-23T16:23:11.777Z,4.63
2022-12-23T16:25:39.533Z,4.35
2022-12-23T16:28:08.094Z,6.60
2022-12-23T16:30:36.875Z,4.13
2022-12-23T16:33:08.572Z,5.35
2022-12-23T16:35:40.009Z,4.55
2022-12-23T16:38:20.831Z,2.70
2022-12-23T16:40:49.226Z,1.60
2022-12-23T16:43:17.128Z,3.53
2022-12-23T16:45:45.206Z,2.33
2022-12-23T16:48:20.447Z,3.22
2022-12-23T16:50:48.259Z,2.70
2022-12-23T16:53:16.177Z,2.10
2022-12-23T16:55:51.140Z,1.73
2022-12-23T16:58:22.911Z,2.50
2022-12-23T17:00:50.719Z,2.67
2022-12-23T17:03:19.059Z,3.27
2022-12-23T17:05:49.502Z,1.75
2022-12-23T17:08:17.255Z,3.10
2022-12-23T17:10:45.113Z,2.20
2022-12-23T17:13:13.137Z,2.13
2022-12-23T17:15:40.884Z,2.72
2022-12-23T17:18:15.733Z,2.88
2022-12-23T17:20:44.276Z,1.77
2022-12-23T17:23:32.585Z,2.40
2022-12-23T17:26:00.343Z,2.80
2022-12-23T17:28:29.128Z,3.03
2022-12-23T17:30:56.973Z,3.90
2022-12-23T17:33:25.328Z,3.53
2022-12-23T17:35:53.639Z,2.77
2022-12-23T17:38:22.251Z,4.32
2022-12-23T17:40:49.921Z,3.88
2022-12-23T17:43:17.893Z,3.45
2022-12-23T17:45:45.705Z,3.93
2022-12-23T17:48:20.105Z,2.92
2022-12-23T17:50:49.235Z,3.85
2022-12-23T17:53:17.547Z,2.57
2022-12-23T17:55:45.235Z,2.22
2022-12-23T17:58:14.277Z,4.13
2022-12-23T18:00:42.168Z,3.73
2022-12-23T18:03:13.083Z,3.78
2022-12-23T18:05:40.816Z,1.58
2022-12-23T18:08:08.562Z,2.92
2022-12-23T18:10:39.342Z,2.30
2022-12-23T18:13:07.973Z,2.85
2022-12-23T18:15:36.513Z,2.78
2022-12-23T18:18:11.080Z,2.53
2022-12-23T18:20:38.803Z,2.20
2022-12-23T18:23:06.656Z,2.97
2022-12-23T18:25:34.464Z,3.13
2022-12-23T18:28:02.282Z,1.88
2022-12-23T18:30:30.070Z,2.35
2022-12-23T18:32:57.765Z,2.75
2022-12-23T18:35:31.545Z,2.47
2022-12-23T18:37:59.363Z,2.67
2022-12-23T18:40:32.529Z,3.97
2022-12-23T18:43:00.749Z,2.40
2022-12-23T18:45:32.512Z,2.10
2022-12-23T18:48:00.385Z,4.55
2022-12-23T18:50:28.832Z,2.43
2022-12-23T18:52:58.012Z,2.53
2022-12-23T18:55:25.878Z,4.70
2022-12-23T18:57:53.670Z,2.47
2022-12-23T19:00:25.287Z,2.07
2022-12-23T19:02:53.597Z,1.92
2022-12-23T19:05:23.828Z,4.63
2022-12-23T19:07:51.770Z,1.83
2022-12-23T19:10:21.239Z,3.63
2022-12-23T19:12:49.074Z,3.13
2022-12-23T19:15:16.974Z,2.70
2022-12-23T19:17:44.768Z,4.43
2022-12-23T19:20:13.307Z,2.80
2022-12-23T19:22:41.152Z,2.40
2022-12-23T19:25:09.463Z,5.37
2022-12-23T19:27:39.133Z,1.95
2022-12-23T19:30:07.518Z,3.13
2022-12-23T19:32:35.323Z,2.37
2022-12-23T19:35:03.779Z,1.90
2022-12-23T19:37:33.532Z,2.95
2022-12-23T19:40:01.492Z,2.13
2022-12-23T19:42:29.447Z,2.97
2022-12-23T19:44:57.294Z,3.30
2022-12-23T19:47:25.083Z,3.53
2022-12-23T19:49:52.882Z,2.33
2022-12-23T19:52:20.784Z,1.77
2022-12-23T19:54:48.559Z,2.40
2022-12-23T19:57:16.354Z,3.33
2022-12-23T19:59:44.100Z,1.75
2022-12-23T20:02:18.765Z,1.70
2022-12-23T20:04:46.744Z,2.70
2022-12-23T20:07:14.518Z,3.63
2022-12-23T20:09:42.294Z,3.88
2022-12-23T20:12:10.182Z,5.10
2022-12-23T20:14:38.170Z,4.33
2022-12-23T20:17:07.465Z,3.38
2022-12-23T20:19:39.126Z,3.47
2022-12-23T20:22:11.604Z,3.07
2022-12-23T20:24:39.597Z,3.47
2022-12-23T20:27:11.239Z,3.85
2022-12-23T20:29:40.542Z,3.47
2022-12-23T20:32:08.211Z,3.60
2022-12-23T20:34:39.581Z,2.88
2022-12-23T20:37:08.477Z,2.40
2022-12-23T20:39:36.935Z,6.07
2022-12-23T20:42:04.992Z,3.63
2022-12-23T20:44:37.544Z,3.10
2022-12-23T20:47:08.417Z,4.10
2022-12-23T20:49:36.290Z,4.35
2022-12-23T20:52:04.165Z,2.70
2022-12-23T20:54:33.737Z,2.23
2022-12-23T20:57:02.443Z,4.47
2022-12-23T20:59:30.264Z,5.07
2022-12-23T21:01:59.502Z,3.88
2022-12-23T21:04:27.390Z,3.63
2022-12-23T21:06:55.239Z,5.25
2022-12-23T21:09:23.007Z,3.42
2022-12-23T21:11:50.804Z,5.17
2022-12-23T21:14:18.639Z,2.78
2022-12-23T21:16:46.469Z,3.03
2022-12-23T21:19:15.792Z,3.37
2022-12-23T21:21:43.577Z,4.55
2022-12-23T21:24:11.658Z,4.15
2022-12-23T21:26:39.419Z,4.38
2022-12-23T21:29:07.521Z,3.90
2022-12-23T21:31:36.098Z,4.50
2022-12-23T21:34:04.111Z,2.80
2022-12-23T21:36:32.735Z,4.43
2022-12-23T21:39:00.522Z,3.13
2022-12-23T21:41:29.228Z,2.15
2022-12-23T21:43:57.229Z,4.73
2022-12-23T21:46:25.157Z,2.67
2022-12-23T21:48:53.158Z,3.08
2022-12-23T21:51:21.723Z,3.30
2022-12-23T21:53:50.038Z,3.20
2022-12-23T21:56:20.431Z,3.30
2022-12-23T21:58:48.161Z,3.05
2022-12-23T22:01:17.273Z,1.87
2022-12-23T22:03:45.372Z,4.38
2022-12-23T22:06:16.588Z,3.55
2022-12-23T22:08:44.543Z,3.13
2022-12-23T22:11:13.048Z,2.63
2022-12-23T22:13:41.206Z,2.58
2022-12-23T22:16:12.296Z,2.97
2022-12-23T22:18:40.339Z,2.70
2022-12-23T22:21:09.173Z,3.28
2022-12-23T22:23:37.413Z,2.58
2022-12-23T22:26:05.176Z,3.20
2022-12-23T22:28:33.247Z,4.30
2022-12-23T22:31:04.174Z,4.18
2022-12-23T22:33:32.488Z,3.33
2022-12-23T22:36:00.334Z,2.47
2022-12-23T22:38:28.181Z,2.85
2022-12-23T22:40:55.929Z,2.72
2022-12-23T22:43:23.743Z,3.20
2022-12-23T22:45:57.803Z,3.45
2022-12-23T22:48:26.137Z,4.13
2022-12-23T22:51:03.943Z,3.17
2022-12-23T22:53:32.317Z,3.45
2022-12-23T22:56:00.566Z,4.70
2022-12-23T22:58:28.524Z,2.87
2022-12-23T23:00:56.363Z,2.63
2022-12-23T23:03:24.236Z,3.92
2022-12-23T23:06:01.699Z,2.97
2022-12-23T23:08:29.617Z,2.77
2022-12-23T23:11:00.807Z,4.38
2022-12-23T23:13:29.517Z,2.13
2022-12-23T23:15:57.463Z,3.57
2022-12-23T23:18:25.394Z,3.70
2022-12-23T23:20:53.234Z,4.25
2022-12-23T23:23:21.004Z,3.20
2022-12-23T23:25:48.909Z,2.65
2022-12-23T23:28:16.716Z,5.00
2022-12-23T23:30:44.543Z,4.05
2022-12-23T23:33:12.434Z,2.93
2022-12-23T23:35:40.176Z,2.80
2022-12-23T23:38:08.540Z,2.67
2022-12-23T23:40:36.209Z,2.63
2022-12-23T23:43:04.025Z,2.50
2022-12-23T23:45:31.869Z,4.40
2022-12-23T23:47:59.696Z,2.13
2022-12-23T23:50:27.412Z,3.03
2022-12-23T23:52:55.222Z,2.40
2022-12-23T23:55:22.956Z,3.33
2022-12-23T23:57:50.726Z,3.27
